Share

Guernsey, WY (82214)

Torrington Municipal (KTOR) Elev 4206 ft | 42.06 °N, 104.15 °W | Change Station

Current weather conditions updated 17 minutes ago

Clear
Clear
41 °F
Feels Like 41 °F
N
0
Wind Variable Wind from North
Sunrise 6:10 AM
Sunset 7:46 PM
Moon Waning Gibbous

Today is forecast to be Much Warmer than yesterday.

Pressure 29.91 in
Visibility 10.0 miles
Clouds Clear
Dew Point 35 °F
Humidity 79%
Rainfall 0.00 in
Snow Depth Not available.
UV 0 out of 16
Pollen 10.70 out of 12
Air Quality Not available.
Flu Activity Sporadic
METAR KTOR 201153Z AUTO 00000KT 10SM CLR 05/02 A2997 RMK AO2 SLP129 T00500017 10111 20044 55001

More Conditions Fewer Conditions

Pressure 29.91 in
Visibility 10.0 miles
Clouds Clear
Dew Point 35 °F
Humidity 79%
Rainfall 0.00 in
Snow Depth Not available.
UV 0 out of 16
Pollen 10.70 out of 12
Air Quality Not available.
Flu Activity Sporadic
METAR KTOR 201153Z AUTO 00000KT 10SM CLR 05/02 A2997 RMK AO2 SLP129 T00500017 10111 20044 55001

More Conditions Fewer Conditions

10-Day Weather Forecast

Almanac

Astronomy

Apr. 20, 2014 Rise Set
Actual Time 6:10 AM MDT 7:46 PM MDT
Civil Twilight 5:40 AM MDT 8:15 PM MDT
Nautical Twilight 5:05 AM MDT 8:51 PM MDT
Astronomical Twilight 4:26 AM MDT 9:30 PM MDT
Moon 12:30 AM MDT 10:31 AM MDT
Length of Visible Light 14h 35m
Length of Day
13h 35m
Tomorrow will be 2m 40s longer.
Waning Gibbous, 70% of the Moon is Illuminated
Today
Waning Gibbous
Apr 22
Last Quarter
Apr 29
New
May 6
First Quarter
May 14
Full

Today's Extremes

State Highs State Lows

Community

  • Easter Greetings
    Easter Greetings
  • Sunny day at the coast-Cape Arago Lighthouse
    Sunny day at the coast-Cape Arago Lighthouse
  • Cherry Blossoms
    Cherry Blossoms
  • White-Crowned Sparrow
    White-Crowned Sparrow
  • New Day
    New Day

WunderPhotos

Upload Photos

1,703,174 photos uploaded!

Nearby

Snow Depth

Station Depth Elevation
Windy Peak 24 in 7900 ft
Laprele Creek 25 in 8375 ft
Reno Hill 56 in 8500 ft
Crow Creek 13 in 8330 ft
Casper Mountain 50 in 7850 ft

Coastal Water Temperatures

Place Temperature
No Stations Reporting

Earthquake Activity

City Distance Mag. Time & Date
No recent earthquake activity has been reported nearby.
Minimum magnitude displayed is 2.5.

Nearby Weather Stations

Station Location Temp. Windchill Dew Point Humidity Wind Precip. Elev Updated Type
HADS WHAHLEN DIVERSION DAM WEATHER ST WY, Hartville, WY 39 °F 39 °F - - NW  at  1 mph 0.00 in / hr 4278 ft 4:15 AM MDT MADIS
RAWS CASPER PORTABLE WY, Hartville, WY 45 °F 45 °F 39 °F 80% East  at  2 mph 0.00 in / hr 4785 ft 5:01 AM MDT MADIS

Show More Stations Show Fewer Stations

What do you think?

We're not finished. Please let us know what you like, what you don't like, and what you are still missing.